Time;durP1;ratioP1;P1;durP2;ratioP2;P2;SDS_P1;SDS_P2;PMS_P1;PMS_P2;Temp;Humidity;BMP_temperature;BMP_pressure;BME280_temperature;BME280_humidity;BME280_pressure;Samples;Min_cycle;Max_cycle;Signal;HPM_P1;HPM_P2
2022/03/11 00:02:02;;;;;;;14.97;8.53;;;;;;;-1.88;67.16;95420.88;5031559;28;20202;-75
2022/03/11 00:04:32;;;;;;;13.27;8.13;;;;;;;-1.83;67.06;95420.50;5031739;28;20282;-75
2022/03/11 00:07:00;;;;;;;13.20;8.43;;;;;;;-1.83;65.92;95417.97;5034146;28;20198;-75
2022/03/11 00:09:30;;;;;;;14.03;8.37;;;;;;;-1.77;66.42;95417.47;5035741;28;20798;-76
2022/03/11 00:11:58;;;;;;;12.87;7.50;;;;;;;-1.79;66.61;95420.13;5030297;28;20662;-76
2022/03/11 00:14:25;;;;;;;14.57;8.40;;;;;;;-1.75;67.02;95413.03;5031654;28;20247;-75
2022/03/11 00:16:53;;;;;;;15.33;8.57;;;;;;;-1.72;66.99;95415.34;5031863;28;20206;-76
2022/03/11 00:19:23;;;;;;;16.23;9.93;;;;;;;-1.67;67.75;95418.31;5032655;28;20217;-75
2022/03/11 00:21:50;;;;;;;25.63;11.93;;;;;;;-1.67;68.04;95412.44;5031935;28;20286;-76
2022/03/11 00:24:19;;;;;;;23.73;12.57;;;;;;;-1.66;68.78;95411.50;5032316;28;20218;-75
2022/03/11 00:26:46;;;;;;;21.53;12.63;;;;;;;-1.73;69.35;95406.88;5038747;28;20222;-77
2022/03/11 00:29:15;;;;;;;25.30;14.13;;;;;;;-1.64;69.52;95405.34;5031597;28;20238;-76
2022/03/11 00:31:45;;;;;;;35.23;16.60;;;;;;;-1.63;69.81;95399.31;5031543;28;20210;-75
2022/03/11 00:34:14;;;;;;;42.73;19.10;;;;;;;-1.67;70.41;95397.16;5033690;28;20202;-76
2022/03/11 00:36:45;;;;;;;33.33;16.73;;;;;;;-1.72;70.65;95397.50;5031723;28;20231;-75
2022/03/11 00:39:14;;;;;;;27.33;13.73;;;;;;;-1.77;70.82;95394.53;5024715;28;20260;-75
2022/03/11 00:41:43;;;;;;;27.13;13.90;;;;;;;-1.77;70.65;95400.44;5033949;28;20640;-75
2022/03/11 00:44:12;;;;;;;38.37;18.17;;;;;;;-1.75;71.12;95393.47;5029176;28;20318;-75
2022/03/11 00:46:41;;;;;;;37.23;19.10;;;;;;;-1.73;70.99;95400.97;5022431;28;20199;-75
2022/03/11 00:49:09;;;;;;;45.80;21.37;;;;;;;-1.77;70.41;95397.09;5038395;28;20668;-75
2022/03/11 00:51:38;;;;;;;55.70;24.20;;;;;;;-1.86;71.11;95395.28;5031634;28;20210;-75
2022/03/11 00:54:08;;;;;;;50.80;26.00;;;;;;;-2.19;73.80;95393.69;5031849;28;20620;-75
2022/03/11 00:56:37;;;;;;;50.93;25.53;;;;;;;-2.62;77.09;95380.22;5031481;28;20237;-75
2022/03/11 00:59:06;;;;;;;48.13;24.43;;;;;;;-3.00;80.74;95389.06;5036353;28;20293;-76
2022/03/11 01:01:35;;;;;;;53.60;25.73;;;;;;;-3.18;83.39;95382.88;5030919;28;20226;-75
2022/03/11 01:04:03;;;;;;;52.57;24.13;;;;;;;-3.41;84.43;95388.06;5031169;28;20211;-75
2022/03/11 01:06:32;;;;;;;52.60;22.83;;;;;;;-3.23;83.88;95384.16;5024618;28;20199;-75
2022/03/11 01:09:00;;;;;;;39.67;20.23;;;;;;;-3.11;82.72;95385.72;5031011;28;20288;-75
2022/03/11 01:11:30;;;;;;;44.07;20.73;;;;;;;-3.23;82.79;95387.47;5031235;28;20297;-74
2022/03/11 01:13:58;;;;;;;39.00;19.73;;;;;;;-3.30;83.49;95388.88;5018450;28;20592;-75
2022/03/11 01:16:27;;;;;;;39.07;19.50;;;;;;;-3.30;83.32;95380.44;5018977;28;20219;-75
2022/03/11 01:18:55;;;;;;;41.90;19.70;;;;;;;-3.00;83.57;95395.91;5024670;28;20209;-75
2022/03/11 01:21:24;;;;;;;39.80;18.30;;;;;;;-2.97;81.63;95401.53;5030857;28;20206;-74
2022/03/11 01:23:53;;;;;;;33.10;18.20;;;;;;;-2.99;81.75;95400.06;5036626;28;20206;-75
2022/03/11 01:26:21;;;;;;;41.30;19.83;;;;;;;-2.92;80.56;95396.13;5031288;28;20213;-74
2022/03/11 01:28:52;;;;;;;44.03;20.93;;;;;;;-2.87;80.57;95399.13;5024091;28;20281;-74
2022/03/11 01:31:20;;;;;;;53.23;24.37;;;;;;;-2.81;79.66;95392.75;5025059;28;20213;-75
2022/03/11 01:33:48;;;;;;;53.03;23.43;;;;;;;-2.76;79.48;95390.66;5022210;28;20210;-74
2022/03/11 01:36:23;;;;;;;49.73;24.33;;;;;;;-2.71;79.98;95393.66;5030144;28;20226;-75
2022/03/11 01:38:51;;;;;;;52.50;25.20;;;;;;;-2.62;79.45;95385.28;5028528;28;20202;-75
2022/03/11 01:41:29;;;;;;;48.23;23.50;;;;;;;-2.67;79.72;95383.13;5037467;28;20198;-75
2022/03/11 01:44:01;;;;;;;50.03;24.73;;;;;;;-2.66;79.89;95387.28;5037325;28;20263;-75
2022/03/11 01:46:31;;;;;;;41.87;21.60;;;;;;;-2.64;80.32;95390.50;5031260;28;20256;-75
2022/03/11 01:49:00;;;;;;;41.53;19.93;;;;;;;-2.75;79.17;95394.81;5031419;28;20662;-75
2022/03/11 01:51:29;;;;;;;33.83;18.10;;;;;;;-2.71;78.74;95386.03;5028716;28;20717;-76
2022/03/11 01:53:57;;;;;;;35.13;18.33;;;;;;;-2.64;79.08;95393.06;5017912;28;20276;-76
2022/03/11 01:56:27;;;;;;;36.27;18.80;;;;;;;-2.66;79.17;95389.84;5031048;28;20237;-76
2022/03/11 01:58:58;;;;;;;39.90;17.63;;;;;;;-2.67;78.72;95384.84;5030434;28;20256;-76
2022/03/11 02:01:27;;;;;;;35.03;18.57;;;;;;;-2.58;78.25;95382.41;5040753;28;20677;-76
2022/03/11 02:03:57;;;;;;;35.07;18.73;;;;;;;-2.58;78.40;95384.13;5032182;28;20268;-75
2022/03/11 02:06:26;;;;;;;33.67;18.03;;;;;;;-2.65;79.08;95388.06;5030507;28;20199;-74
2022/03/11 02:08:56;;;;;;;37.13;18.30;;;;;;;-2.68;79.10;95388.31;5030767;28;20289;-74
2022/03/11 02:11:26;;;;;;;33.33;16.60;;;;;;;-2.96;78.84;95392.19;5030408;28;20717;-75
2022/03/11 02:13:56;;;;;;;32.90;16.93;;;;;;;-3.21;80.52;95389.91;5030456;28;20207;-76
2022/03/11 02:16:28;;;;;;;31.50;17.90;;;;;;;-3.49;83.11;95381.00;5036769;28;20321;-74
2022/03/11 02:18:57;;;;;;;36.83;19.60;;;;;;;-3.73;83.69;95380.31;5021602;28;20270;-75
2022/03/11 02:21:27;;;;;;;45.63;21.00;;;;;;;-3.83;88.07;95384.44;5021402;28;20195;-76
2022/03/11 02:23:57;;;;;;;36.33;19.53;;;;;;;-3.77;88.50;95389.88;5021387;28;20273;-75
2022/03/11 02:26:29;;;;;;;45.20;21.27;;;;;;;-3.69;88.30;95381.69;5020943;28;20270;-75
2022/03/11 02:28:59;;;;;;;42.47;21.83;;;;;;;-3.61;86.85;95384.50;5027115;28;20202;-75
2022/03/11 02:31:28;;;;;;;42.80;20.70;;;;;;;-3.54;86.64;95371.22;5029917;28;20257;-75
2022/03/11 02:33:58;;;;;;;43.83;20.50;;;;;;;-3.29;84.14;95379.53;5029658;28;20211;-74
2022/03/11 02:36:26;;;;;;;46.13;22.37;;;;;;;-3.22;83.80;95395.91;5032487;28;20266;-74
2022/03/11 02:38:55;;;;;;;47.87;22.40;;;;;;;-3.15;83.41;95381.84;5032578;28;20298;-74
2022/03/11 02:41:27;;;;;;;48.57;21.27;;;;;;;-3.05;82.36;95396.25;5034345;28;20285;-74
2022/03/11 02:43:55;;;;;;;44.10;21.43;;;;;;;-3.15;82.55;95397.88;5034100;28;20293;-75
2022/03/11 02:46:23;;;;;;;42.07;21.00;;;;;;;-3.12;82.05;95399.38;5033931;28;20199;-75
2022/03/11 02:48:51;;;;;;;37.67;19.50;;;;;;;-3.09;81.56;95401.69;5034217;28;20206;-74
2022/03/11 02:51:19;;;;;;;45.87;19.90;;;;;;;-3.14;82.34;95403.75;5033711;28;20213;-74
2022/03/11 02:53:48;;;;;;;46.03;20.80;;;;;;;-3.35;81.59;95406.22;5033650;28;20261;-75
2022/03/11 02:56:18;;;;;;;43.03;20.77;;;;;;;-3.60;83.08;95409.75;5040556;28;20400;-75
2022/03/11 02:58:47;;;;;;;41.37;20.07;;;;;;;-3.74;83.97;95409.16;5033331;28;20218;-74
2022/03/11 03:01:14;;;;;;;40.53;19.10;;;;;;;-3.86;84.85;95410.03;5033808;28;20214;-75
2022/03/11 03:03:43;;;;;;;38.63;18.40;;;;;;;-3.95;85.55;95406.44;5027816;28;20211;-74
2022/03/11 03:06:11;;;;;;;38.30;18.47;;;;;;;-3.86;84.85;95412.56;5033832;28;20269;-75
2022/03/11 03:08:39;;;;;;;38.73;18.13;;;;;;;-3.83;85.22;95405.56;5033825;28;20210;-75
2022/03/11 03:11:07;;;;;;;34.63;17.57;;;;;;;-3.87;84.53;95409.25;5033478;28;20218;-74
2022/03/11 03:13:37;;;;;;;36.33;18.10;;;;;;;-4.02;85.18;95407.84;5034252;28;20265;-75
2022/03/11 03:16:06;;;;;;;37.83;18.47;;;;;;;-4.00;86.17;95411.06;5040255;28;20608;-75
2022/03/11 03:18:34;;;;;;;39.83;18.53;;;;;;;-3.95;85.50;95415.81;5037621;28;20202;-75
2022/03/11 03:21:13;;;;;;;41.43;20.03;;;;;;;-3.95;85.64;95414.06;5037391;28;20206;-75
2022/03/11 03:23:41;;;;;;;47.30;24.43;;;;;;;-3.92;84.82;95410.50;5041600;28;20289;-74
2022/03/11 03:26:09;;;;;;;51.60;24.63;;;;;;;-3.88;85.19;95410.16;5022933;28;20207;-74
2022/03/11 03:28:38;;;;;;;51.97;25.13;;;;;;;-3.85;85.24;95409.13;5032880;28;20241;-75
2022/03/11 03:31:06;;;;;;;41.80;22.53;;;;;;;-3.82;85.20;95402.09;5027360;28;20207;-73
2022/03/11 03:33:35;;;;;;;38.00;18.57;;;;;;;-3.84;85.05;95401.44;5034060;28;20203;-75
2022/03/11 03:36:03;;;;;;;37.63;18.47;;;;;;;-3.73;84.48;95418.41;5039558;28;20325;-75
2022/03/11 03:38:32;;;;;;;36.90;18.60;;;;;;;-3.66;84.26;95414.47;5033469;28;20662;-74
2022/03/11 03:41:01;;;;;;;36.77;18.70;;;;;;;-3.63;83.42;95409.16;5033591;28;20207;-75
2022/03/11 03:43:30;;;;;;;44.50;23.23;;;;;;;-3.95;82.92;95416.59;5033848;28;20242;-74
2022/03/11 03:46:00;;;;;;;46.60;24.13;;;;;;;-4.38;85.77;95418.06;5033597;28;20203;-74
2022/03/11 03:48:29;;;;;;;50.77;24.30;;;;;;;-4.76;88.00;95413.97;5032628;28;20205;-74
2022/03/11 03:50:57;;;;;;;49.47;24.57;;;;;;;-4.79;92.78;95414.16;5032979;28;20252;-73
2022/03/11 03:53:26;;;;;;;55.53;23.87;;;;;;;-4.68;92.68;95416.78;5027330;28;20205;-73
2022/03/11 03:55:55;;;;;;;50.50;24.43;;;;;;;-4.59;92.98;95415.34;5020332;28;20238;-73
2022/03/11 03:58:24;;;;;;;52.70;25.13;;;;;;;-4.40;90.81;95414.84;5026840;28;20933;-74
2022/03/11 04:00:52;;;;;;;60.17;25.63;;;;;;;-4.36;90.15;95414.53;5027449;28;20642;-73
2022/03/11 04:03:24;;;;;;;61.17;26.40;;;;;;;-4.22;89.32;95423.69;5033759;28;20237;-73
2022/03/11 04:05:52;;;;;;;59.60;26.87;;;;;;;-4.18;89.22;95414.91;5027303;28;20235;-73
2022/03/11 04:08:19;;;;;;;67.77;29.37;;;;;;;-4.09;88.33;95420.16;5033690;28;20207;-75
2022/03/11 04:10:47;;;;;;;78.50;33.83;;;;;;;-3.95;86.85;95426.75;5033412;28;20582;-74
2022/03/11 04:13:15;;;;;;;93.10;38.00;;;;;;;-3.87;85.65;95433.81;5032970;28;20207;-74
2022/03/11 04:15:44;;;;;;;75.17;35.27;;;;;;;-3.78;84.04;95439.03;5027021;28;20199;-76
2022/03/11 04:18:14;;;;;;;73.03;33.30;;;;;;;-3.91;84.96;95430.69;5033266;28;20217;-75
2022/03/11 04:20:44;;;;;;;81.60;34.53;;;;;;;-3.78;84.74;95438.25;5032901;28;20211;-76
2022/03/11 04:23:12;;;;;;;79.03;36.07;;;;;;;-3.80;84.79;95447.69;5028872;28;20222;-75
2022/03/11 04:25:40;;;;;;;64.00;31.47;;;;;;;-3.81;83.82;95449.41;5033903;28;20289;-75
2022/03/11 04:28:08;;;;;;;61.43;28.23;;;;;;;-3.78;82.10;95439.03;5034461;28;20217;-76
2022/03/11 04:30:36;;;;;;;51.77;25.87;;;;;;;-3.76;82.33;95447.34;5038523;28;20249;-74
2022/03/11 04:33:04;;;;;;;51.00;24.13;;;;;;;-3.83;82.30;95446.16;5033969;28;20285;-75
2022/03/11 04:35:35;;;;;;;46.00;23.23;;;;;;;-3.93;82.36;95440.16;5023939;28;20200;-75
2022/03/11 04:38:29;;;;;;;49.77;23.33;;;;;;;-3.94;82.58;95443.59;5025941;28;20210;-75
2022/03/11 04:40:58;;;;;;;54.40;25.33;;;;;;;-3.93;82.64;95442.69;5021435;28;20944;-75
2022/03/11 04:43:25;;;;;;;47.43;24.90;;;;;;;-3.96;83.08;95440.38;5021740;28;20624;-75
2022/03/11 04:45:53;;;;;;;49.47;24.83;;;;;;;-4.02;83.76;95445.91;5023997;28;20211;-76
2022/03/11 04:48:21;;;;;;;45.57;21.53;;;;;;;-3.99;82.99;95442.31;5022388;28;20207;-75
2022/03/11 04:50:49;;;;;;;46.37;22.50;;;;;;;-4.14;83.29;95444.22;5022411;28;20597;-75
2022/03/11 04:53:17;;;;;;;49.00;21.73;;;;;;;-4.31;83.09;95463.19;5021319;28;20191;-74
2022/03/11 04:55:46;;;;;;;44.67;22.30;;;;;;;-4.42;84.71;95445.38;5021516;28;20581;-75
2022/03/11 04:58:14;;;;;;;52.00;23.80;;;;;;;-4.63;86.52;95449.41;5021180;28;20207;-75
2022/03/11 05:00:43;;;;;;;39.63;19.13;;;;;;;-4.90;86.67;95452.13;5022088;28;20217;-75
2022/03/11 05:03:11;;;;;;;42.17;19.10;;;;;;;-5.16;86.90;95451.34;5022162;28;20196;-77
2022/03/11 05:05:39;;;;;;;37.80;18.50;;;;;;;-5.39;90.57;95457.16;5021576;28;20188;-76
2022/03/11 05:08:08;;;;;;;45.23;18.73;;;;;;;-5.37;92.30;95455.31;5023164;28;20195;-77
2022/03/11 05:10:36;;;;;;;37.17;19.10;;;;;;;-5.29;91.90;95453.09;5022199;28;20246;-71
2022/03/11 05:13:06;;;;;;;38.23;18.73;;;;;;;-5.13;91.37;95464.72;5021891;28;20206;-71
2022/03/11 05:15:38;;;;;;;52.83;20.10;;;;;;;-5.04;91.69;95459.84;5021570;28;20199;-72
2022/03/11 05:18:06;;;;;;;47.83;22.37;;;;;;;-4.87;91.07;95471.38;5023005;28;20599;-71
2022/03/11 05:20:35;;;;;;;44.27;22.07;;;;;;;-4.73;90.19;95466.97;5022579;28;20195;-73
2022/03/11 05:23:03;;;;;;;47.27;21.87;;;;;;;-4.61;89.53;95467.84;5025025;28;20214;-73
2022/03/11 05:25:31;;;;;;;49.70;24.50;;;;;;;-4.55;88.77;95469.16;5020894;28;20187;-73
2022/03/11 05:27:59;;;;;;;48.73;24.30;;;;;;;-4.51;87.29;95460.44;5020814;28;20198;-73
2022/03/11 05:30:28;;;;;;;49.07;24.73;;;;;;;-4.29;87.73;95481.63;5018486;28;20201;-73
2022/03/11 05:32:55;;;;;;;59.13;26.67;;;;;;;-4.23;86.87;95485.47;5021412;28;20206;-73
2022/03/11 05:35:23;;;;;;;60.00;28.00;;;;;;;-4.17;86.99;95485.84;5023498;28;20198;-72
2022/03/11 05:37:51;;;;;;;59.23;29.17;;;;;;;-4.08;87.29;95494.53;5018641;28;20222;-73
2022/03/11 05:40:19;;;;;;;69.90;35.00;;;;;;;-4.02;87.20;95494.09;5021968;28;20192;-73
2022/03/11 05:42:48;;;;;;;71.20;35.87;;;;;;;-3.97;86.37;95488.69;5025149;28;20624;-72
2022/03/11 05:45:18;;;;;;;76.70;35.43;;;;;;;-3.82;85.22;95498.56;5021376;28;20187;-72
2022/03/11 05:47:47;;;;;;;67.23;34.57;;;;;;;-3.73;85.24;95497.09;5020694;28;20218;-72
2022/03/11 05:50:16;;;;;;;76.47;36.40;;;;;;;-3.64;84.07;95492.16;5020276;28;20206;-73
2022/03/11 05:52:47;;;;;;;71.03;34.83;;;;;;;-3.56;83.58;95489.88;5023459;28;20226;-72
2022/03/11 05:55:14;;;;;;;64.20;32.53;;;;;;;-3.46;81.69;95493.34;5022149;28;20690;-73
2022/03/11 05:57:43;;;;;;;108.03;51.53;;;;;;;-3.45;80.38;95489.09;5021851;28;20227;-72
2022/03/11 06:00:12;;;;;;;139.13;67.47;;;;;;;-3.74;81.40;95505.63;5019936;28;20585;-74
2022/03/11 06:02:41;;;;;;;119.20;54.77;;;;;;;-3.81;81.62;95501.91;5020990;28;20190;-72
2022/03/11 06:05:11;;;;;;;100.20;47.87;;;;;;;-3.74;81.24;95501.34;5018026;28;20203;-72
2022/03/11 06:07:39;;;;;;;87.03;41.33;;;;;;;-3.57;80.87;95497.59;5021336;28;20203;-72
2022/03/11 06:10:09;;;;;;;87.23;40.37;;;;;;;-3.46;79.78;95507.78;5019938;28;20207;-72
2022/03/11 06:12:37;;;;;;;74.00;37.50;;;;;;;-3.36;79.53;95503.66;5022492;28;20199;-72
2022/03/11 06:15:11;;;;;;;74.53;34.43;;;;;;;-3.30;78.63;95510.81;5020009;28;20213;-71
2022/03/11 06:17:40;;;;;;;68.57;32.17;;;;;;;-3.25;77.77;95505.41;5022164;28;20292;-72
2022/03/11 06:20:13;;;;;;;71.37;34.03;;;;;;;-3.14;77.95;95515.56;5019155;28;20203;-73
2022/03/11 06:22:49;;;;;;;74.37;34.80;;;;;;;-3.45;79.36;95520.38;5020498;28;20197;-72
2022/03/11 06:25:18;;;;;;;65.20;31.43;;;;;;;-3.42;80.25;95516.00;5020323;28;20630;-72
2022/03/11 06:27:46;;;;;;;64.37;31.53;;;;;;;-3.53;81.42;95522.66;5021501;28;20187;-76
2022/03/11 06:30:14;;;;;;;60.00;29.13;;;;;;;-3.49;82.93;95528.31;5019421;28;20286;-72
2022/03/11 06:32:43;;;;;;;58.20;26.77;;;;;;;-3.25;82.62;95523.19;5021075;28;20897;-72
2022/03/11 06:35:14;;;;;;;38.47;20.53;;;;;;;-2.99;80.72;95533.03;5011123;28;20285;-73
2022/03/11 06:37:41;;;;;;;42.03;20.37;;;;;;;-2.81;77.53;95535.94;5014425;28;20227;-73
2022/03/11 06:40:10;;;;;;;50.20;23.03;;;;;;;-2.82;75.56;95536.88;5020245;28;20199;-74
2022/03/11 06:42:39;;;;;;;46.27;20.83;;;;;;;-2.95;75.67;95521.72;5020412;28;20195;-74
2022/03/11 06:45:09;;;;;;;45.03;21.73;;;;;;;-2.81;76.26;95535.94;5019557;28;20215;-71
2022/03/11 06:47:37;;;;;;;44.07;21.07;;;;;;;-2.68;75.59;95529.00;5018352;28;20196;-73
2022/03/11 06:50:08;;;;;;;40.00;20.70;;;;;;;-2.59;74.55;95540.22;5020810;28;20199;-72
2022/03/11 06:52:39;;;;;;;42.87;22.93;;;;;;;-2.58;74.61;95532.47;5019695;28;20194;-73
2022/03/11 06:55:08;;;;;;;35.10;18.40;;;;;;;-2.39;74.40;95542.03;5022741;28;20235;-72
2022/03/11 06:57:36;;;;;;;36.53;18.20;;;;;;;-2.21;72.93;95538.09;5013296;28;20222;-73
2022/03/11 07:00:05;;;;;;;43.10;17.37;;;;;;;-2.22;71.17;95535.69;5021470;28;20673;-73
2022/03/11 07:02:34;;;;;;;32.33;17.23;;;;;;;-2.13;71.64;95542.59;5020532;28;20712;-73
2022/03/11 07:05:02;;;;;;;43.70;19.83;;;;;;;-2.01;73.31;95536.53;5021619;28;20191;-72
2022/03/11 07:07:33;;;;;;;46.43;22.10;;;;;;;-1.87;71.38;95546.44;5018353;28;20231;-72
2022/03/11 07:10:05;;;;;;;33.43;17.17;;;;;;;-1.80;70.72;95552.69;5016172;28;20205;-74
2022/03/11 07:12:32;;;;;;;22.20;11.13;;;;;;;-1.76;66.50;95552.31;5023173;28;20216;-72
2022/03/11 07:15:00;;;;;;;15.10;9.03;;;;;;;-1.72;65.42;95551.16;5023093;28;20195;-71
2022/03/11 07:17:29;;;;;;;16.80;8.80;;;;;;;-1.66;64.82;95554.16;5022628;28;20218;-72
2022/03/11 07:19:58;;;;;;;20.13;9.30;;;;;;;-1.57;63.12;95558.50;5022280;28;20723;-72
2022/03/11 07:22:26;;;;;;;14.87;9.50;;;;;;;-1.50;63.88;95547.69;5017468;28;20210;-73
2022/03/11 07:24:55;;;;;;;15.57;9.70;;;;;;;-1.37;63.32;95550.91;5026402;28;20198;-72
2022/03/11 07:27:24;;;;;;;18.00;9.83;;;;;;;-1.29;62.93;95550.28;5024785;28;20264;-78
2022/03/11 07:29:56;;;;;;;20.10;9.53;;;;;;;-1.36;61.96;95544.88;5027050;28;20214;-79
2022/03/11 07:32:25;;;;;;;17.77;9.67;;;;;;;-1.32;65.31;95542.88;5031031;28;20293;-79
2022/03/11 07:34:52;;;;;;;23.10;9.47;;;;;;;-1.29;63.13;95548.53;5023570;28;20207;-77
2022/03/11 07:37:21;;;;;;;17.07;9.30;;;;;;;-1.32;60.85;95548.78;5022698;28;20302;-76
2022/03/11 07:39:51;;;;;;;17.17;9.13;;;;;;;-1.34;60.86;95553.22;5023242;28;20564;-76
2022/03/11 07:42:19;;;;;;;17.37;9.20;;;;;;;-1.38;59.16;95551.00;5019800;28;20199;-75
2022/03/11 07:44:49;;;;;;;20.10;9.83;;;;;;;-1.79;60.12;95546.69;5022301;28;20638;-76
2022/03/11 07:47:17;;;;;;;17.23;9.40;;;;;;;-2.07;62.63;95545.47;5025656;28;20214;-75
2022/03/11 07:49:44;;;;;;;14.27;9.47;;;;;;;-2.27;64.17;95548.75;5026122;28;20198;-75
2022/03/11 07:52:15;;;;;;;19.70;10.80;;;;;;;-2.21;64.87;95542.38;5020796;28;20195;-76
2022/03/11 07:54:44;;;;;;;16.57;9.47;;;;;;;-2.09;63.65;95546.53;5024704;28;20241;-75
2022/03/11 07:57:12;;;;;;;15.00;9.13;;;;;;;-1.93;62.53;95550.28;5026997;28;20666;-75
2022/03/11 07:59:41;;;;;;;17.53;9.73;;;;;;;-1.77;61.88;95535.44;5025506;28;20199;-75
2022/03/11 08:02:11;;;;;;;17.10;9.80;;;;;;;-1.51;61.53;95545.28;5020588;28;20709;-75
2022/03/11 08:04:38;;;;;;;16.23;9.33;;;;;;;-1.42;60.05;95547.09;5024245;28;20206;-76
2022/03/11 08:07:09;;;;;;;14.83;9.37;;;;;;;-1.29;60.33;95545.19;5020933;28;20201;-75
2022/03/11 08:09:38;;;;;;;17.60;9.73;;;;;;;-1.09;60.32;95546.09;5027179;28;20555;-75
2022/03/11 08:12:06;;;;;;;20.07;9.90;;;;;;;-1.04;58.49;95544.00;5026694;28;20205;-75
2022/03/11 08:14:34;;;;;;;15.17;8.97;;;;;;;-0.92;58.72;95545.53;5021817;28;20187;-75
2022/03/11 08:17:02;;;;;;;15.53;8.90;;;;;;;-0.93;56.45;95539.66;5024812;28;20202;-75
2022/03/11 08:19:33;;;;;;;15.57;9.53;;;;;;;-0.91;55.52;95547.16;5023648;28;20203;-74
2022/03/11 08:22:02;;;;;;;14.27;8.73;;;;;;;-0.97;54.99;95550.22;5024289;28;20623;-76
2022/03/11 08:24:30;;;;;;;16.97;9.50;;;;;;;-1.23;55.27;95542.94;5022751;28;20286;-76
2022/03/11 08:26:59;;;;;;;14.63;9.00;;;;;;;-1.25;56.71;95546.56;5022240;28;20206;-76
2022/03/11 08:29:32;;;;;;;15.93;9.73;;;;;;;-1.40;56.92;95550.34;5025203;28;20199;-77
2022/03/11 08:32:00;;;;;;;18.07;9.37;;;;;;;-1.18;57.81;95538.28;5028641;28;20318;-76
2022/03/11 08:34:28;;;;;;;17.70;10.10;;;;;;;-1.35;56.85;95548.22;5021744;28;20187;-75
2022/03/11 08:36:57;;;;;;;19.57;9.80;;;;;;;-1.58;57.63;95547.50;5024856;28;20206;-76
2022/03/11 08:39:26;;;;;;;16.37;9.90;;;;;;;-2.03;58.86;95548.59;5021259;28;20256;-76
2022/03/11 08:41:55;;;;;;;19.13;10.40;;;;;;;-2.27;60.45;95543.66;5020686;28;20209;-76
2022/03/11 08:44:25;;;;;;;22.77;10.13;;;;;;;-1.95;60.40;95536.88;5021689;28;20281;-76
2022/03/11 08:46:52;;;;;;;16.53;9.97;;;;;;;-1.59;58.62;95535.72;5021826;28;20217;-76
2022/03/11 08:49:19;;;;;;;14.07;9.13;;;;;;;-1.56;58.70;95535.47;5022792;28;20286;-75
2022/03/11 08:51:47;;;;;;;14.67;9.23;;;;;;;-1.64;57.48;95522.53;5020914;28;20199;-75
2022/03/11 08:54:19;;;;;;;15.43;9.40;;;;;;;-1.63;56.79;95531.78;5018294;28;20623;-77
2022/03/11 08:56:47;;;;;;;15.03;9.40;;;;;;;-1.39;56.37;95526.47;4987792;28;20244;-76
2022/03/11 08:59:15;;;;;;;17.53;9.33;;;;;;;-1.26;57.51;95527.91;4984645;28;20217;-76
2022/03/11 09:01:43;;;;;;;17.83;9.53;;;;;;;-1.18;55.87;95528.06;4983070;28;20207;-76
2022/03/11 09:04:10;;;;;;;17.43;9.47;;;;;;;-1.13;56.73;95527.72;4985189;28;20223;-76
2022/03/11 09:06:37;;;;;;;15.60;9.50;;;;;;;-0.78;55.99;95528.16;4981065;28;20202;-76
2022/03/11 09:09:05;;;;;;;18.53;8.77;;;;;;;-0.40;53.92;95537.72;4983977;28;20205;-75
2022/03/11 09:11:34;;;;;;;13.23;9.07;;;;;;;-0.15;53.96;95534.72;4980431;28;20243;-76
2022/03/11 09:14:02;;;;;;;12.27;8.40;;;;;;;-0.25;51.95;95522.84;4982910;28;20203;-77
2022/03/11 09:16:31;;;;;;;15.80;9.13;;;;;;;-0.44;53.27;95544.03;4983871;28;20291;-75
2022/03/11 09:18:59;;;;;;;15.67;8.93;;;;;;;-0.28;52.64;95534.13;4981008;28;20216;-77
2022/03/11 09:21:28;;;;;;;14.10;8.87;;;;;;;0.03;52.46;95545.06;4982317;28;20725;-77
2022/03/11 09:23:56;;;;;;;14.90;8.80;;;;;;;0.26;51.91;95538.00;4985830;28;20206;-77
2022/03/11 09:26:23;;;;;;;14.33;8.87;;;;;;;0.00;49.45;95541.03;4981110;28;20204;-76
2022/03/11 09:28:53;;;;;;;14.37;8.77;;;;;;;-0.48;51.42;95535.00;4985375;28;20193;-76
2022/03/11 09:31:21;;;;;;;15.40;9.33;;;;;;;-0.49;52.05;95537.69;4981514;28;20211;-76
2022/03/11 09:33:49;;;;;;;13.33;8.13;;;;;;;-0.15;51.73;95537.28;4984640;28;20193;-77
2022/03/11 09:36:18;;;;;;;14.87;8.97;;;;;;;-0.18;50.90;95539.28;4981388;28;20200;-76
2022/03/11 09:38:46;;;;;;;13.90;8.97;;;;;;;-0.66;50.62;95533.97;4980288;28;20307;-76
2022/03/11 09:41:14;;;;;;;16.67;8.43;;;;;;;-1.07;51.32;95524.66;4984863;28;20200;-77
2022/03/11 09:43:42;;;;;;;14.57;8.90;;;;;;;-1.08;52.54;95533.25;4981674;28;20232;-76
2022/03/11 09:46:13;;;;;;;15.67;9.27;;;;;;;-1.12;52.29;95519.13;4985129;28;20200;-76
2022/03/11 09:48:43;;;;;;;14.90;9.27;;;;;;;-1.02;52.73;95531.94;4981102;28;20196;-77
2022/03/11 09:51:11;;;;;;;20.53;9.60;;;;;;;-0.96;51.83;95533.97;4978464;28;20319;-78
2022/03/11 09:53:40;;;;;;;14.63;9.47;;;;;;;-0.98;51.07;95528.22;4981526;28;20196;-77
2022/03/11 09:56:08;;;;;;;15.93;9.77;;;;;;;-1.02;50.96;95529.38;5012930;28;20238;-77
2022/03/11 09:58:35;;;;;;;16.13;9.97;;;;;;;-1.03;51.80;95527.75;5020280;28;20258;-76
2022/03/11 10:01:04;;;;;;;18.50;9.70;;;;;;;-1.00;52.24;95527.50;5021453;28;21168;-76
2022/03/11 10:03:34;;;;;;;16.60;10.10;;;;;;;-1.01;51.82;95526.69;5021480;28;20233;-75
2022/03/11 10:06:02;;;;;;;19.63;10.13;;;;;;;-1.02;51.84;95521.72;5029497;28;20194;-79
2022/03/11 10:08:34;;;;;;;19.27;11.67;;;;;;;-0.95;52.47;95513.44;5024230;28;20225;-80
2022/03/11 10:11:22;;;;;;;19.73;10.90;;;;;;;-0.79;51.57;95518.09;5022001;28;20662;-79
2022/03/11 10:13:51;;;;;;;18.17;10.87;;;;;;;-0.78;51.92;95502.63;5024238;28;20217;-80
2022/03/11 10:16:20;;;;;;;22.47;12.50;;;;;;;-0.98;51.56;95508.59;5021370;28;20200;-81
2022/03/11 10:19:00;;;;;;;22.43;12.23;;;;;;;-1.06;53.20;95513.50;5024155;28;20226;-81
2022/03/11 10:21:32;;;;;;;19.60;11.40;;;;;;;-1.00;53.09;95517.31;5026317;28;20229;-80
2022/03/11 10:24:02;;;;;;;23.87;12.40;;;;;;;-0.96;52.12;95518.69;5024678;28;20651;-80
2022/03/11 10:26:39;;;;;;;18.90;11.20;;;;;;;-0.90;52.36;95508.78;5027002;28;20588;-79
2022/03/11 10:29:10;;;;;;;21.23;11.53;;;;;;;-0.79;52.52;95511.25;5026868;28;20684;-80
2022/03/11 10:31:43;;;;;;;20.30;11.03;;;;;;;-0.62;52.60;95515.75;5017854;28;20198;-80
2022/03/11 10:34:19;;;;;;;20.63;11.03;;;;;;;-0.55;52.18;95517.78;5014223;28;20226;-81
2022/03/11 10:36:52;;;;;;;21.63;11.37;;;;;;;-0.51;52.14;95516.56;4997059;28;20313;-80
2022/03/11 10:39:21;;;;;;;20.50;10.37;;;;;;;-0.44;51.47;95526.16;5023582;28;20286;-79
2022/03/11 10:41:50;;;;;;;22.00;10.73;;;;;;;-0.57;51.55;95518.72;5022418;28;20608;-79
2022/03/11 10:44:23;;;;;;;23.93;10.97;;;;;;;-0.80;52.09;95521.56;5027157;28;20204;-80
2022/03/11 10:46:52;;;;;;;18.77;10.80;;;;;;;-0.92;51.86;95509.81;5025676;28;20663;-80
2022/03/11 10:49:31;;;;;;;16.80;10.57;;;;;;;-1.05;52.27;95515.16;5035706;28;20233;-80
2022/03/11 10:52:00;;;;;;;17.83;10.50;;;;;;;-1.16;52.99;95498.19;5027642;28;20210;-79
2022/03/11 10:54:29;;;;;;;21.53;10.83;;;;;;;-1.18;52.81;95502.59;5021587;28;20206;-79
2022/03/11 10:57:09;;;;;;;19.97;10.13;;;;;;;-1.22;52.92;95497.88;5024669;28;20191;-79
2022/03/11 10:59:37;;;;;;;19.73;11.00;;;;;;;-1.26;52.76;95491.41;5031968;28;20690;-80
2022/03/11 11:02:05;;;;;;;18.53;10.67;;;;;;;-1.27;52.98;95500.00;5039951;28;20205;-80
2022/03/11 11:04:35;;;;;;;21.20;11.60;;;;;;;-1.36;52.93;95476.06;5028113;28;20191;-78
2022/03/11 11:07:07;;;;;;;21.80;11.90;;;;;;;-1.25;52.48;95485.38;5027185;28;20211;-78
2022/03/11 11:09:35;;;;;;;21.20;12.10;;;;;;;-1.02;52.54;95491.94;5032065;28;20278;-79
2022/03/11 11:12:04;;;;;;;15.37;10.23;;;;;;;-0.89;51.71;95491.72;5025428;28;20215;-78
2022/03/11 11:14:32;;;;;;;16.90;11.07;;;;;;;-0.82;51.33;95488.53;5024278;28;20194;-79
2022/03/11 11:17:04;;;;;;;23.00;12.10;;;;;;;-0.70;51.86;95482.41;5026491;28;20230;-79
2022/03/11 11:19:37;;;;;;;18.03;11.27;;;;;;;-0.57;50.82;95480.44;5030947;28;20306;-79
2022/03/11 11:22:06;;;;;;;20.90;11.33;;;;;;;-0.62;50.11;95469.00;5029024;28;20215;-78
2022/03/11 11:24:40;;;;;;;24.73;11.13;;;;;;;-0.45;50.14;95481.13;5038218;28;20195;-79
2022/03/11 11:27:09;;;;;;;18.47;10.93;;;;;;;-0.40;50.21;95489.19;5028533;28;20203;-79
2022/03/11 11:29:38;;;;;;;20.03;10.90;;;;;;;-0.45;50.64;95493.09;5031956;28;20199;-79